Time;durP1;ratioP1;P1;durP2;ratioP2;P2;SDS_P1;SDS_P2;PMS_P1;PMS_P2;Temp;Humidity;BMP_temperature;BMP_pressure;BME280_temperature;BME280_humidity;BME280_pressure;Samples;Min_cycle;Max_cycle;Signal;HPM_P1;HPM_P2
2022/09/07 00:00:50;;;;;;;6.38;5.45;;;;;;;8.36;65.03;99419.06;5036787;28;20127;-67
2022/09/07 00:03:16;;;;;;;7.68;5.78;;;;;;;8.30;64.60;99417.63;5036934;28;20051;-66
2022/09/07 00:05:43;;;;;;;8.48;5.38;;;;;;;8.33;64.63;99413.97;5036371;28;20101;-68
2022/09/07 00:08:08;;;;;;;16.95;5.38;;;;;;;8.32;64.84;99415.78;5055012;28;20123;-64
2022/09/07 00:10:33;;;;;;;8.15;5.13;;;;;;;8.34;64.81;99413.88;5020945;28;20035;-65
2022/09/07 00:12:57;;;;;;;7.40;4.85;;;;;;;8.31;64.88;99402.56;5057291;28;20039;-67
2022/09/07 00:15:23;;;;;;;7.43;4.80;;;;;;;8.33;64.76;99409.50;5057474;28;20048;-64
2022/09/07 00:17:47;;;;;;;7.05;4.22;;;;;;;8.33;64.52;99406.84;5057039;28;20036;-64
2022/09/07 00:20:13;;;;;;;6.97;4.40;;;;;;;8.35;64.93;99407.56;5060659;28;20103;-64
2022/09/07 00:22:38;;;;;;;5.07;3.47;;;;;;;8.36;65.01;99408.44;5062911;28;20040;-65
2022/09/07 00:25:04;;;;;;;4.68;3.15;;;;;;;8.34;65.00;99405.06;5062898;28;20047;-65
2022/09/07 00:27:29;;;;;;;4.15;3.28;;;;;;;8.35;64.86;99412.88;5038165;28;20044;-64
2022/09/07 00:29:54;;;;;;;3.00;2.70;;;;;;;8.36;64.63;99411.09;5054971;28;20051;-64
2022/09/07 00:32:18;;;;;;;3.15;2.80;;;;;;;8.36;64.48;99409.28;5055283;28;20074;-65
2022/09/07 00:34:43;;;;;;;4.22;3.08;;;;;;;8.36;64.49;99414.59;5036979;28;20039;-65
2022/09/07 00:37:08;;;;;;;2.72;2.25;;;;;;;8.35;64.74;99404.91;5055335;28;20559;-75
2022/09/07 00:39:33;;;;;;;4.20;2.78;;;;;;;8.36;64.52;99398.66;5056392;28;20533;-72
2022/09/07 00:41:57;;;;;;;4.10;3.17;;;;;;;8.37;64.76;99396.84;5054944;28;20135;-72
2022/09/07 00:44:41;;;;;;;3.42;2.88;;;;;;;8.45;64.78;99409.66;5054755;28;20134;-72
2022/09/07 00:47:18;;;;;;;7.25;3.25;;;;;;;8.41;64.49;99394.84;5040648;28;20064;-72
2022/09/07 00:49:46;;;;;;;4.25;3.28;;;;;;;8.37;64.59;99397.72;5034643;28;20109;-68
2022/09/07 00:52:12;;;;;;;4.82;3.42;;;;;;;8.36;64.79;99393.34;5034523;28;20043;-70
2022/09/07 00:54:50;;;;;;;5.65;3.08;;;;;;;8.38;64.61;99391.44;5034206;28;20101;-67
2022/09/07 00:57:14;;;;;;;3.55;2.78;;;;;;;8.34;64.71;99386.47;5034144;28;20131;-68
2022/09/07 00:59:43;;;;;;;5.43;3.60;;;;;;;8.31;64.78;99387.50;5040979;28;20530;-65
2022/09/07 01:02:08;;;;;;;6.05;3.20;;;;;;;8.26;65.07;99386.06;5054044;28;20043;-66
2022/09/07 01:04:34;;;;;;;3.22;2.67;;;;;;;8.24;65.14;99388.81;5054346;28;20040;-66
2022/09/07 01:07:00;;;;;;;4.95;3.03;;;;;;;8.25;65.14;99382.56;5040282;28;20044;-67
2022/09/07 01:09:26;;;;;;;3.65;2.75;;;;;;;8.25;65.12;99379.03;5067973;28;20050;-67
2022/09/07 01:11:53;;;;;;;4.15;2.83;;;;;;;8.24;65.18;99388.00;5049016;28;20043;-66
2022/09/07 01:14:22;;;;;;;4.15;3.10;;;;;;;8.26;65.51;99386.06;5061301;28;20052;-66
2022/09/07 01:16:49;;;;;;;4.50;3.33;;;;;;;8.22;65.61;99384.56;5061408;28;20031;-72
2022/09/07 01:19:29;;;;;;;4.65;3.03;;;;;;;8.26;65.68;99381.59;5061497;28;20047;-72
2022/09/07 01:22:20;;;;;;;7.85;2.90;;;;;;;8.24;65.69;99378.19;5061046;28;20036;-72
2022/09/07 01:24:57;;;;;;;5.88;2.45;;;;;;;8.17;65.56;99384.88;5060741;28;20051;-72
2022/09/07 01:27:31;;;;;;;4.65;2.97;;;;;;;8.16;65.60;99374.34;5061597;28;20057;-74
2022/09/07 01:30:10;;;;;;;4.90;3.40;;;;;;;8.09;65.94;99379.22;5043822;28;20498;-74
2022/09/07 01:33:13;;;;;;;4.75;3.22;;;;;;;8.13;65.85;99378.03;5043002;28;20566;-67
2022/09/07 01:35:43;;;;;;;2.97;2.65;;;;;;;8.03;66.10;99369.84;5043446;28;20040;-73
2022/09/07 01:38:14;;;;;;;5.93;3.13;;;;;;;8.00;66.05;99370.06;5043349;28;20364;-70
2022/09/07 01:41:02;;;;;;;6.82;2.75;;;;;;;8.02;65.79;99370.78;5027309;28;20141;-73
2022/09/07 01:43:45;;;;;;;3.08;2.75;;;;;;;7.94;66.18;99369.59;5045312;28;20108;-69
2022/09/07 01:46:20;;;;;;;3.92;2.92;;;;;;;7.90;66.46;99366.28;5065256;28;20044;-69
2022/09/07 01:48:48;;;;;;;4.72;3.25;;;;;;;7.85;66.89;99364.88;5039587;28;20102;-69
2022/09/07 01:51:16;;;;;;;5.15;3.28;;;;;;;7.81;66.71;99360.72;5036986;28;20037;-64
2022/09/07 01:53:54;;;;;;;5.40;3.20;;;;;;;7.83;66.89;99357.00;5036596;28;20649;-63
2022/09/07 01:56:31;;;;;;;4.82;2.92;;;;;;;7.78;67.35;99360.94;5054564;28;20127;-63
2022/09/07 01:59:01;;;;;;;5.70;3.40;;;;;;;7.74;66.87;99356.75;5038499;28;20036;-64
2022/09/07 02:01:59;;;;;;;3.35;2.70;;;;;;;7.73;66.90;99363.88;5047972;28;20505;-62
2022/09/07 02:04:30;;;;;;;4.72;3.20;;;;;;;7.65;67.31;99353.75;5033269;28;20491;-63
2022/09/07 02:07:05;;;;;;;4.15;2.65;;;;;;;7.64;67.48;99361.81;5049241;28;20071;-63
2022/09/07 02:09:32;;;;;;;3.80;3.15;;;;;;;7.61;67.85;99359.34;5048744;28;20040;-64
2022/09/07 02:12:02;;;;;;;4.43;3.40;;;;;;;7.56;67.80;99359.63;5030427;28;20044;-64
2022/09/07 02:14:36;;;;;;;4.72;3.35;;;;;;;7.55;67.78;99352.66;5015513;28;20032;-68
2022/09/07 02:17:04;;;;;;;4.82;3.13;;;;;;;7.51;67.80;99345.81;5029694;28;20123;-68
2022/09/07 02:19:35;;;;;;;6.50;3.70;;;;;;;7.53;68.20;99346.59;5007513;28;20060;-69
2022/09/07 02:22:06;;;;;;;6.10;3.30;;;;;;;7.52;68.79;99344.88;5027825;28;20060;-71
2022/09/07 02:24:40;;;;;;;4.63;3.42;;;;;;;7.52;68.43;99344.88;5027501;28;20596;-70
2022/09/07 02:27:13;;;;;;;6.30;3.25;;;;;;;7.49;68.70;99347.72;5029327;28;20502;-70
2022/09/07 02:29:38;;;;;;;5.70;3.33;;;;;;;7.45;68.51;99340.88;5027681;28;20407;-72
2022/09/07 02:32:03;;;;;;;5.05;3.70;;;;;;;7.46;68.70;99355.84;5045153;28;20051;-72
2022/09/07 02:34:28;;;;;;;4.85;3.30;;;;;;;7.48;68.87;99350.47;5012443;28;20439;-72
2022/09/07 02:36:55;;;;;;;4.28;3.35;;;;;;;7.45;69.11;99346.19;5009295;28;20510;-67
2022/09/07 02:39:20;;;;;;;5.28;3.13;;;;;;;7.42;69.36;99346.41;5010540;28;20472;-67
2022/09/07 02:41:45;;;;;;;4.28;3.05;;;;;;;7.45;69.54;99348.84;5046871;28;20486;-67
2022/09/07 02:44:21;;;;;;;5.97;3.85;;;;;;;7.50;70.25;99344.13;5023187;28;20051;-67
2022/09/07 02:47:08;;;;;;;6.28;3.33;;;;;;;7.57;69.61;99349.88;5019391;28;20040;-69
2022/09/07 02:49:53;;;;;;;5.22;3.30;;;;;;;7.59;69.11;99332.91;5035112;28;20506;-69
2022/09/07 02:53:00;;;;;;;6.20;3.53;;;;;;;7.71;68.57;99333.94;5036613;28;20041;-72
2022/09/07 02:55:44;;;;;;;5.28;3.65;;;;;;;7.64;69.14;99333.47;4956071;28;20580;-73
2022/09/07 02:58:33;;;;;;;5.07;3.83;;;;;;;7.66;68.94;99338.69;4955695;28;20393;-70
2022/09/07 03:01:30;;;;;;;3.28;2.95;;;;;;;7.77;69.10;99327.38;4975592;28;20464;-71
2022/09/07 03:04:13;;;;;;;5.15;3.80;;;;;;;7.80;69.11;99329.81;4982069;28;20052;-71
2022/09/07 03:06:48;;;;;;;3.75;3.20;;;;;;;7.80;68.88;99333.31;4974737;28;20062;-71
2022/09/07 03:09:24;;;;;;;6.47;3.05;;;;;;;7.89;68.73;99339.84;4974938;28;20038;-71
2022/09/07 03:11:49;;;;;;;5.07;3.88;;;;;;;7.87;68.24;99326.69;4974844;28;20045;-73
2022/09/07 03:14:17;;;;;;;5.45;3.47;;;;;;;7.90;68.29;99337.06;4974951;28;20045;-71
2022/09/07 03:16:42;;;;;;;3.40;3.00;;;;;;;7.96;68.02;99341.16;4974198;28;20513;-72
2022/09/07 03:19:07;;;;;;;5.15;2.88;;;;;;;7.99;68.00;99336.50;4941585;28;20630;-70
2022/09/07 03:21:32;;;;;;;3.63;2.75;;;;;;;7.99;67.62;99320.56;4958887;28;20524;-74
2022/09/07 03:23:57;;;;;;;6.85;3.33;;;;;;;8.02;67.53;99319.50;4942942;28;20559;-71
2022/09/07 03:26:26;;;;;;;8.18;3.45;;;;;;;8.05;67.54;99315.78;4958548;28;20600;-71
2022/09/07 03:28:51;;;;;;;4.45;3.20;;;;;;;8.08;67.86;99316.44;4974860;28;20207;-72
2022/09/07 03:31:16;;;;;;;5.18;3.63;;;;;;;8.03;67.88;99306.13;4996184;28;20052;-73
2022/09/07 03:33:40;;;;;;;4.88;3.65;;;;;;;8.07;67.39;99313.88;5038075;28;20043;-65
2022/09/07 03:36:05;;;;;;;3.40;2.67;;;;;;;8.12;67.91;99314.44;5056144;28;20570;-66
2022/09/07 03:38:30;;;;;;;7.90;3.58;;;;;;;8.14;67.48;99313.38;5020330;28;20079;-66
2022/09/07 03:41:04;;;;;;;5.78;3.10;;;;;;;8.23;67.88;99318.09;5055521;28;20126;-66
2022/09/07 03:43:29;;;;;;;4.22;3.00;;;;;;;8.24;67.08;99314.44;5037162;28;20055;-64
2022/09/07 03:46:03;;;;;;;3.13;2.83;;;;;;;8.31;67.72;99322.88;5056145;28;20039;-64
2022/09/07 03:48:33;;;;;;;4.53;3.35;;;;;;;8.31;67.02;99326.41;5037459;28;20043;-65
2022/09/07 03:50:59;;;;;;;3.00;2.75;;;;;;;8.31;67.55;99306.94;5037223;28;20425;-65
2022/09/07 03:53:24;;;;;;;4.18;3.42;;;;;;;8.35;67.21;99317.28;5037522;28;20509;-65
2022/09/07 03:56:00;;;;;;;5.13;2.85;;;;;;;8.42;66.87;99315.06;5055630;28;20398;-65
2022/09/07 03:58:24;;;;;;;7.43;3.25;;;;;;;8.38;67.03;99306.44;5055983;28;20071;-66
2022/09/07 04:00:49;;;;;;;3.42;3.13;;;;;;;8.37;66.82;99310.06;5055509;28;20078;-67
2022/09/07 04:03:14;;;;;;;5.63;3.45;;;;;;;8.35;66.98;99300.50;5055518;28;20105;-66
2022/09/07 04:05:39;;;;;;;4.35;3.22;;;;;;;8.37;67.20;99299.44;5037012;28;20495;-66
2022/09/07 04:08:03;;;;;;;3.10;2.60;;;;;;;8.34;66.95;99302.31;5055693;28;20087;-64
2022/09/07 04:10:28;;;;;;;5.50;3.67;;;;;;;8.29;67.05;99291.09;5055239;28;20139;-65
2022/09/07 04:12:53;;;;;;;3.90;3.40;;;;;;;8.27;66.96;99294.81;5020763;28;20068;-65
2022/09/07 04:15:17;;;;;;;8.32;3.90;;;;;;;8.24;67.59;99293.22;5020370;28;20154;-65
2022/09/07 04:17:42;;;;;;;4.07;3.42;;;;;;;8.20;67.31;99297.03;5037053;28;20096;-65
2022/09/07 04:20:07;;;;;;;6.32;4.10;;;;;;;8.10;67.53;99298.63;5036928;28;20506;-65
2022/09/07 04:22:32;;;;;;;4.88;3.60;;;;;;;8.08;67.66;99297.88;5036892;28;20039;-65
2022/09/07 04:24:57;;;;;;;7.00;3.80;;;;;;;8.11;67.71;99302.13;5055437;28;20111;-66
2022/09/07 04:27:22;;;;;;;6.97;3.47;;;;;;;8.18;67.85;99290.13;5054977;28;20070;-66
2022/09/07 04:29:46;;;;;;;4.65;3.33;;;;;;;8.38;67.71;99295.81;5036754;28;20173;-65
2022/09/07 04:32:11;;;;;;;4.00;3.33;;;;;;;8.68;66.88;99292.88;5054586;28;20048;-65
2022/09/07 04:34:36;;;;;;;5.03;3.65;;;;;;;8.98;66.53;99289.88;5055178;28;20047;-66
2022/09/07 04:37:01;;;;;;;4.32;3.08;;;;;;;9.28;65.32;99284.19;5054975;28;20048;-65
2022/09/07 04:39:25;;;;;;;4.28;3.28;;;;;;;9.56;64.20;99288.38;5037077;28;20040;-66
2022/09/07 04:41:50;;;;;;;4.47;2.88;;;;;;;9.94;62.97;99290.00;5036052;28;20039;-66
2022/09/07 04:44:15;;;;;;;7.13;4.88;;;;;;;10.36;61.96;99289.47;5037143;28;20051;-71
2022/09/07 04:46:40;;;;;;;4.60;3.42;;;;;;;10.69;60.46;99283.38;5056191;28;20111;-72
2022/09/07 04:49:09;;;;;;;13.13;3.95;;;;;;;10.90;60.11;99280.84;5055185;28;20392;-71
2022/09/07 04:51:35;;;;;;;4.35;3.30;;;;;;;10.96;59.37;99279.50;5055286;28;20454;-71
2022/09/07 04:54:01;;;;;;;4.85;3.45;;;;;;;11.03;59.39;99270.91;5036059;28;20582;-72
2022/09/07 04:56:26;;;;;;;3.90;2.95;;;;;;;11.11;59.08;99272.97;5020717;28;20048;-71
2022/09/07 04:58:51;;;;;;;3.67;2.90;;;;;;;11.12;58.16;99270.16;5063176;28;20131;-73
2022/09/07 05:01:19;;;;;;;5.82;4.18;;;;;;;11.24;58.54;99277.19;5056989;28;20036;-70
2022/09/07 05:03:44;;;;;;;7.70;4.90;;;;;;;11.34;57.88;99279.13;5023118;28;20070;-72
2022/09/07 05:06:10;;;;;;;4.95;3.60;;;;;;;11.43;57.84;99283.72;5058382;28;20058;-74
2022/09/07 05:08:43;;;;;;;6.90;3.45;;;;;;;11.49;56.90;99284.09;5023861;28;20040;-71
2022/09/07 05:11:09;;;;;;;6.07;4.18;;;;;;;11.48;57.53;99284.22;5041414;28;20052;-70
2022/09/07 05:13:34;;;;;;;4.30;3.47;;;;;;;11.47;57.63;99282.50;5040805;28;20047;-71
2022/09/07 05:16:05;;;;;;;4.82;3.63;;;;;;;11.48;57.57;99278.88;5059690;28;20048;-71
2022/09/07 05:18:30;;;;;;;11.07;3.40;;;;;;;11.58;57.65;99271.81;5061494;28;20036;-65
2022/09/07 05:20:55;;;;;;;5.57;3.40;;;;;;;11.68;57.48;99272.75;5038820;28;20170;-66
2022/09/07 05:23:20;;;;;;;5.55;3.65;;;;;;;11.78;57.60;99279.06;5054870;28;20147;-66
2022/09/07 05:25:46;;;;;;;9.02;3.92;;;;;;;11.85;56.83;99277.56;5036097;28;20056;-66
2022/09/07 05:28:12;;;;;;;5.18;3.38;;;;;;;11.96;56.72;99272.19;5036539;28;20040;-66
2022/09/07 05:30:37;;;;;;;6.88;3.78;;;;;;;12.09;56.71;99276.50;5036485;28;20118;-65
2022/09/07 05:33:02;;;;;;;4.90;3.47;;;;;;;12.17;55.85;99274.06;5036254;28;20039;-65
2022/09/07 05:35:27;;;;;;;3.28;2.92;;;;;;;12.21;55.64;99283.50;5054628;28;20044;-66
2022/09/07 05:37:52;;;;;;;4.85;3.40;;;;;;;12.21;55.75;99276.34;5003898;28;20043;-66
2022/09/07 05:40:17;;;;;;;5.55;3.08;;;;;;;12.22;55.52;99269.16;5055065;28;20047;-65
2022/09/07 05:42:42;;;;;;;5.07;3.40;;;;;;;12.21;54.91;99265.66;5019377;28;20032;-65
2022/09/07 05:45:07;;;;;;;4.55;3.25;;;;;;;12.26;55.63;99258.09;5055966;28;20198;-65
2022/09/07 05:47:32;;;;;;;10.25;4.00;;;;;;;12.36;55.21;99260.84;5056142;28;20035;-65
2022/09/07 05:49:57;;;;;;;6.07;4.10;;;;;;;12.49;54.60;99257.97;5055170;28;20050;-66
2022/09/07 05:52:21;;;;;;;5.72;3.75;;;;;;;12.56;54.90;99257.31;5055339;28;20044;-66
2022/09/07 05:54:46;;;;;;;7.18;3.63;;;;;;;12.66;54.66;99276.09;5040422;28;20150;-66
2022/09/07 05:57:12;;;;;;;5.40;3.80;;;;;;;12.70;54.52;99272.19;5041044;28;20498;-71
2022/09/07 05:59:37;;;;;;;5.85;4.00;;;;;;;12.66;54.66;99276.09;5061100;28;20052;-72
2022/09/07 06:02:02;;;;;;;7.68;3.45;;;;;;;12.56;54.34;99264.47;5065219;28;20044;-71
2022/09/07 06:04:26;;;;;;;5.35;3.95;;;;;;;12.38;54.82;99276.75;5060710;28;20105;-71
2022/09/07 06:06:51;;;;;;;5.20;3.78;;;;;;;12.24;55.22;99276.09;5062815;28;20043;-72
2022/09/07 06:09:16;;;;;;;4.60;3.50;;;;;;;12.24;55.67;99278.75;5044930;28;20048;-72
2022/09/07 06:11:41;;;;;;;5.43;3.30;;;;;;;12.27;55.70;99273.16;5061105;28;20048;-67
2022/09/07 06:14:06;;;;;;;7.95;3.55;;;;;;;12.43;54.89;99277.19;5044547;28;20055;-65
2022/09/07 06:16:33;;;;;;;6.80;3.60;;;;;;;12.60;55.32;99274.78;5058887;28;20044;-65
2022/09/07 06:18:58;;;;;;;5.32;3.75;;;;;;;12.72;54.66;99272.91;5057678;28;20086;-67
2022/09/07 06:21:23;;;;;;;8.60;3.22;;;;;;;12.69;53.32;99267.81;5023536;28;20040;-72
2022/09/07 06:23:49;;;;;;;8.07;3.40;;;;;;;12.84;53.83;99279.88;5058144;28;20108;-71
2022/09/07 06:26:15;;;;;;;5.60;4.03;;;;;;;13.16;53.33;99262.84;5040268;28;20062;-65
2022/09/07 06:28:43;;;;;;;5.43;3.92;;;;;;;13.42;51.99;99262.25;5023556;28;20039;-67
2022/09/07 06:31:16;;;;;;;5.60;3.63;;;;;;;13.98;51.73;99256.28;5039688;28;20100;-65
2022/09/07 06:33:46;;;;;;;6.82;3.80;;;;;;;15.30;48.55;99250.91;5040035;28;20392;-66
2022/09/07 06:36:14;;;;;;;4.35;3.35;;;;;;;17.21;44.54;99249.41;5005397;28;20511;-66
2022/09/07 06:38:39;;;;;;;5.20;3.47;;;;;;;18.99;40.43;99242.56;5039538;28;20074;-66
2022/09/07 06:41:25;;;;;;;5.07;2.90;;;;;;;20.47;39.36;99250.59;5023630;28;20430;-71
2022/09/07 06:43:50;;;;;;;6.95;3.40;;;;;;;20.97;35.71;99250.78;5058173;28;20048;-71
2022/09/07 06:46:16;;;;;;;3.47;3.13;;;;;;;20.79;35.30;99244.88;5058422;28;20057;-71
2022/09/07 06:48:41;;;;;;;3.90;3.17;;;;;;;20.72;35.95;99257.47;5023243;28;20047;-72
2022/09/07 06:51:17;;;;;;;3.75;3.22;;;;;;;20.49;36.12;99253.97;5058158;28;20414;-70
2022/09/07 06:53:42;;;;;;;4.13;2.95;;;;;;;19.84;36.51;99244.44;5042763;28;20105;-70
2022/09/07 06:56:12;;;;;;;6.93;4.00;;;;;;;19.26;37.47;99254.81;5062534;28;20126;-69
2022/09/07 06:58:37;;;;;;;5.72;3.47;;;;;;;19.00;38.01;99252.34;5041053;28;20047;-71
2022/09/07 07:01:08;;;;;;;4.63;3.20;;;;;;;18.84;38.36;99256.78;5057647;28;20052;-70
2022/09/07 07:03:33;;;;;;;5.18;3.72;;;;;;;18.72;38.89;99251.91;5039372;28;20525;-70
2022/09/07 07:05:58;;;;;;;4.07;3.15;;;;;;;19.01;38.25;99245.94;5021080;28;20139;-68
2022/09/07 07:08:24;;;;;;;6.00;3.30;;;;;;;19.65;36.72;99242.16;5056382;28;20040;-67
2022/09/07 07:10:50;;;;;;;5.50;3.20;;;;;;;20.19;35.96;99242.16;5056001;28;20384;-67
2022/09/07 07:13:16;;;;;;;4.22;3.05;;;;;;;21.11;34.58;99240.97;5038382;28;20044;-67
2022/09/07 07:15:41;;;;;;;5.55;3.40;;;;;;;21.52;33.51;99226.94;5038339;28;20048;-69
2022/09/07 07:18:07;;;;;;;4.82;3.03;;;;;;;21.31;33.75;99231.28;5038296;28;20419;-68
2022/09/07 07:20:34;;;;;;;3.92;3.33;;;;;;;20.66;34.27;99236.53;5038713;28;20178;-68
2022/09/07 07:22:59;;;;;;;4.78;3.15;;;;;;;19.87;35.68;99230.53;5056765;28;20406;-69
2022/09/07 07:25:24;;;;;;;4.80;2.97;;;;;;;19.23;36.55;99232.53;5021963;28;20411;-66
2022/09/07 07:27:49;;;;;;;4.53;3.40;;;;;;;18.54;37.89;99241.25;5038469;28;20121;-66
2022/09/07 07:30:15;;;;;;;3.88;2.75;;;;;;;17.94;38.60;99233.50;5038454;28;20046;-70
2022/09/07 07:32:40;;;;;;;6.35;3.83;;;;;;;17.38;39.95;99231.47;5038170;28;20050;-67
2022/09/07 07:35:06;;;;;;;4.95;2.95;;;;;;;16.84;40.84;99238.94;5038690;28;20040;-67
2022/09/07 07:37:31;;;;;;;6.63;3.28;;;;;;;16.74;41.35;99238.19;5021439;28;20526;-68
2022/09/07 07:39:56;;;;;;;7.53;3.53;;;;;;;16.86;41.18;99234.22;5056438;28;20526;-67
2022/09/07 07:42:21;;;;;;;5.07;2.80;;;;;;;17.27;40.29;99234.44;5056647;28;20515;-67
2022/09/07 07:44:45;;;;;;;4.82;3.05;;;;;;;17.41;39.61;99228.44;5039072;28;20048;-66
2022/09/07 07:47:10;;;;;;;2.97;2.67;;;;;;;17.24;39.74;99227.53;5022187;28;20036;-72
2022/09/07 07:49:35;;;;;;;6.45;2.67;;;;;;;16.96;40.56;99226.03;5021953;28;20143;-71
2022/09/07 07:52:00;;;;;;;4.72;2.70;;;;;;;16.78;40.85;99222.59;5037675;28;20123;-67
2022/09/07 07:54:25;;;;;;;9.20;3.20;;;;;;;16.82;41.38;99229.31;5037838;28;20035;-67
2022/09/07 07:56:50;;;;;;;3.63;3.05;;;;;;;17.51;40.13;99221.03;5038293;28;20105;-67
2022/09/07 07:59:15;;;;;;;5.68;2.72;;;;;;;18.07;38.66;99211.41;5037354;28;20113;-67
2022/09/07 08:01:40;;;;;;;4.57;2.47;;;;;;;18.36;37.86;99222.56;5037777;28;20079;-67
2022/09/07 08:04:04;;;;;;;4.55;2.40;;;;;;;19.06;37.34;99220.09;4996327;28;20570;-67
2022/09/07 08:06:29;;;;;;;2.65;2.45;;;;;;;19.88;35.03;99217.84;4996723;28;20061;-67
2022/09/07 08:08:54;;;;;;;11.98;3.70;;;;;;;20.38;34.36;99217.31;4995739;28;20472;-67
2022/09/07 08:11:22;;;;;;;2.88;2.63;;;;;;;20.53;32.78;99206.53;4996575;28;20052;-67
2022/09/07 08:13:48;;;;;;;3.83;2.55;;;;;;;20.53;32.78;99206.53;4980433;28;20052;-68
2022/09/07 08:16:14;;;;;;;3.35;2.75;;;;;;;20.98;32.83;99202.84;4994716;28;20128;-66
2022/09/07 08:18:39;;;;;;;3.88;2.90;;;;;;;21.08;32.32;99202.56;5013353;28;20044;-66
2022/09/07 08:21:14;;;;;;;5.63;3.30;;;;;;;21.10;32.63;99201.34;5012810;28;20120;-68
2022/09/07 08:23:40;;;;;;;4.90;3.22;;;;;;;21.00;32.74;99203.47;4996176;28;20083;-66
2022/09/07 08:26:05;;;;;;;3.40;3.10;;;;;;;21.57;31.90;99197.38;4980346;28;20098;-69
2022/09/07 08:28:34;;;;;;;5.97;3.53;;;;;;;22.74;29.74;99190.56;4980088;28;20103;-66
2022/09/07 08:31:04;;;;;;;5.53;3.17;;;;;;;23.68;28.57;99182.75;4996738;28;20045;-67
2022/09/07 08:33:29;;;;;;;4.78;2.97;;;;;;;23.53;28.07;99189.19;5012689;28;20041;-67
2022/09/07 08:36:01;;;;;;;5.25;3.08;;;;;;;22.70;28.73;99186.56;5030811;28;20062;-67
2022/09/07 08:38:29;;;;;;;5.05;3.50;;;;;;;21.74;29.89;99190.69;5055197;28;20043;-67
2022/09/07 08:40:55;;;;;;;3.65;3.03;;;;;;;21.64;30.48;99182.88;5004025;28;20040;-65
2022/09/07 08:43:35;;;;;;;6.10;3.47;;;;;;;23.31;29.69;99184.03;5037022;28;20071;-64
2022/09/07 08:46:14;;;;;;;3.28;2.80;;;;;;;24.99;26.53;99186.63;5036994;28;20051;-65
2022/09/07 08:48:39;;;;;;;2.80;2.60;;;;;;;25.25;24.93;99186.56;5041184;28;20044;-65
2022/09/07 08:51:17;;;;;;;4.82;2.65;;;;;;;25.45;24.70;99195.50;5061058;28;20040;-65
2022/09/07 08:53:48;;;;;;;5.78;2.33;;;;;;;25.14;24.48;99187.22;5055263;28;20047;-71
2022/09/07 08:56:23;;;;;;;3.47;2.97;;;;;;;25.26;24.67;99188.22;5057123;28;20051;-71
2022/09/07 08:58:52;;;;;;;3.42;2.75;;;;;;;25.56;23.90;99188.53;5039449;28;20051;-70
2022/09/07 09:01:19;;;;;;;3.58;2.80;;;;;;;25.49;23.54;99183.09;5004225;28;20123;-72
2022/09/07 09:03:47;;;;;;;2.92;2.55;;;;;;;24.91;24.42;99193.13;5020178;28;20040;-71
2022/09/07 09:06:36;;;;;;;6.38;2.47;;;;;;;24.16;25.17;99192.47;5037558;28;20557;-72
2022/09/07 09:09:16;;;;;;;7.43;3.95;;;;;;;22.77;27.06;99174.75;5036927;28;20032;-70
2022/09/07 09:12:23;;;;;;;6.20;3.03;;;;;;;21.25;27.84;99177.81;5036661;28;20598;-71
2022/09/07 09:15:08;;;;;;;5.47;3.22;;;;;;;20.90;29.98;99178.53;5035724;28;20039;-67
2022/09/07 09:17:48;;;;;;;6.18;3.03;;;;;;;20.78;29.92;99185.44;5054359;28;20442;-66
2022/09/07 09:20:18;;;;;;;5.80;3.45;;;;;;;20.51;30.02;99182.34;5055236;28;20051;-66
2022/09/07 09:22:43;;;;;;;10.48;3.72;;;;;;;19.98;30.47;99182.44;5054510;28;20040;-65
2022/09/07 09:25:12;;;;;;;5.60;2.92;;;;;;;19.78;31.02;99176.66;5055173;28;20040;-66
2022/09/07 09:27:37;;;;;;;8.35;3.15;;;;;;;19.26;31.98;99177.28;5020504;28;20130;-65
2022/09/07 09:30:13;;;;;;;5.75;2.78;;;;;;;19.26;32.17;99173.72;5040562;28;20475;-66
2022/09/07 09:32:41;;;;;;;3.28;2.72;;;;;;;19.39;32.16;99176.72;5040382;28;20048;-65
2022/09/07 09:35:33;;;;;;;8.75;3.15;;;;;;;19.65;31.92;99179.94;5040596;28;20036;-66
2022/09/07 09:38:02;;;;;;;5.40;2.70;;;;;;;19.34;32.09;99179.09;5041051;28;20123;-66
2022/09/07 09:40:30;;;;;;;3.90;3.05;;;;;;;19.55;32.01;99182.88;5040650;28;20081;-66
2022/09/07 09:43:00;;;;;;;3.33;2.60;;;;;;;19.73;31.63;99171.81;5058917;28;20043;-66
2022/09/07 09:45:28;;;;;;;2.50;2.30;;;;;;;19.82;31.55;99180.69;5040368;28;20046;-65
2022/09/07 09:47:53;;;;;;;4.22;2.95;;;;;;;19.89;31.26;99174.38;5023595;28;20071;-66
2022/09/07 09:50:30;;;;;;;2.40;2.30;;;;;;;20.02;31.54;99183.75;5057204;28;20063;-65
2022/09/07 09:52:55;;;;;;;2.90;2.25;;;;;;;19.75;31.29;99172.44;5040561;28;20051;-65
2022/09/07 09:55:30;;;;;;;2.28;2.05;;;;;;;19.62;31.19;99165.97;5060074;28;20044;-66
2022/09/07 09:57:57;;;;;;;3.03;2.22;;;;;;;18.92;31.59;99179.44;5058338;28;20547;-66
2022/09/07 10:00:23;;;;;;;6.20;2.38;;;;;;;18.49;32.51;99176.16;5058756;28;20489;-66
2022/09/07 10:03:04;;;;;;;2.25;2.03;;;;;;;18.35;33.62;99174.97;5058713;28;20044;-66
2022/09/07 10:05:37;;;;;;;2.88;2.35;;;;;;;17.91;34.16;99179.88;5058695;28;20048;-66
2022/09/07 10:08:05;;;;;;;3.10;2.30;;;;;;;17.63;34.82;99176.63;5057755;28;20047;-66
2022/09/07 10:10:30;;;;;;;3.97;2.40;;;;;;;17.51;34.93;99171.69;5057379;28;20039;-66
2022/09/07 10:12:55;;;;;;;4.63;3.55;;;;;;;17.26;36.10;99178.88;5057821;28;20051;-66
2022/09/07 10:15:39;;;;;;;4.75;2.30;;;;;;;17.19;36.12;99177.84;5054728;28;20032;-66
2022/09/07 10:18:08;;;;;;;2.42;1.67;;;;;;;16.75;36.50;99171.75;5034500;28;20098;-66
2022/09/07 10:20:36;;;;;;;5.57;2.30;;;;;;;16.62;37.42;99180.25;5035756;28;20186;-66
2022/09/07 10:23:02;;;;;;;1.67;1.58;;;;;;;16.42;38.34;99170.69;5037333;28;20040;-65
2022/09/07 10:25:29;;;;;;;3.78;2.55;;;;;;;16.24;38.96;99179.66;5057516;28;20042;-67
2022/09/07 10:28:05;;;;;;;5.47;2.20;;;;;;;16.11;39.61;99181.91;5057040;28;20050;-65
2022/09/07 10:30:40;;;;;;;2.67;2.15;;;;;;;15.97;39.84;99167.16;5054016;28;20032;-67
2022/09/07 10:33:38;;;;;;;5.72;2.63;;;;;;;15.84;40.70;99179.28;5055963;28;20042;-66
2022/09/07 10:36:19;;;;;;;4.03;2.20;;;;;;;15.68;41.88;99173.78;5010229;28;20036;-66
2022/09/07 10:38:52;;;;;;;2.05;1.85;;;;;;;15.60;42.13;99170.00;4992332;28;20068;-66
2022/09/07 10:41:23;;;;;;;7.90;3.45;;;;;;;15.48;43.09;99175.72;5008599;28;20037;-66
2022/09/07 10:43:49;;;;;;;4.10;2.60;;;;;;;15.24;43.61;99171.75;5009861;28;20106;-65
2022/09/07 10:46:27;;;;;;;2.10;1.90;;;;;;;15.18;43.37;99172.38;5011517;28;20037;-66
2022/09/07 10:49:13;;;;;;;3.83;2.30;;;;;;;15.11;43.85;99171.31;4979752;28;20052;-67
2022/09/07 10:51:59;;;;;;;4.38;2.38;;;;;;;15.02;43.64;99171.31;4994993;28;20055;-70
2022/09/07 10:54:49;;;;;;;4.82;2.35;;;;;;;14.75;44.60;99170.34;5013835;28;20435;-64
2022/09/07 10:57:41;;;;;;;3.88;2.72;;;;;;;14.71;44.26;99178.81;5021132;28;20044;-65
2022/09/07 11:00:22;;;;;;;3.90;2.47;;;;;;;14.55;45.39;99187.50;5015672;28;20045;-66
2022/09/07 11:03:05;;;;;;;1.90;1.70;;;;;;;14.22;46.92;99182.63;4998576;28;20037;-65
2022/09/07 11:06:20;;;;;;;7.00;2.50;;;;;;;14.07;48.49;99185.72;5014793;28;20052;-64
2022/09/07 11:09:17;;;;;;;2.70;2.28;;;;;;;13.75;50.02;99191.38;4918163;29;20047;-64
2022/09/07 11:11:58;;;;;;;2.28;1.85;;;;;;;13.45;50.24;99191.47;4842073;29;20049;-65
2022/09/07 11:14:26;;;;;;;3.90;3.05;;;;;;;13.18;52.31;99191.31;4899438;29;20075;-67
2022/09/07 11:17:02;;;;;;;5.20;2.80;;;;;;;13.03;53.53;99188.97;4898744;29;20085;-65
2022/09/07 11:19:34;;;;;;;2.38;2.00;;;;;;;12.84;53.03;99188.06;4898584;29;20066;-64
2022/09/07 11:22:14;;;;;;;2.53;2.33;;;;;;;12.75;53.38;99195.06;4882390;29;20138;-64
2022/09/07 11:24:51;;;;;;;2.65;2.03;;;;;;;12.46;55.58;99188.72;4897836;29;20462;-65
2022/09/07 11:27:30;;;;;;;3.30;2.03;;;;;;;12.31;55.72;99190.88;4882044;29;20135;-65
2022/09/07 11:30:03;;;;;;;2.13;1.80;;;;;;;12.17;56.30;99194.75;4897818;29;20134;-66
2022/09/07 11:32:39;;;;;;;7.10;3.20;;;;;;;12.07;55.78;99182.31;4898460;29;20054;-67
2022/09/07 11:35:14;;;;;;;2.63;2.28;;;;;;;11.88;57.63;99181.16;4883089;29;20061;-68
2022/09/07 11:37:45;;;;;;;4.53;2.63;;;;;;;11.86;56.45;99172.44;4898788;29;20134;-66
2022/09/07 11:40:35;;;;;;;3.70;2.13;;;;;;;11.67;55.20;99166.91;4899276;29;20422;-66
2022/09/07 11:43:15;;;;;;;2.95;1.77;;;;;;;11.43;57.06;99164.47;4898270;29;20123;-69
2022/09/07 11:45:52;;;;;;;7.55;2.70;;;;;;;11.12;58.61;99167.94;4931147;28;20054;-67
2022/09/07 11:48:22;;;;;;;2.75;2.38;;;;;;;11.01;59.15;99168.81;5009994;28;20048;-67
2022/09/07 11:50:52;;;;;;;10.10;3.03;;;;;;;10.90;59.48;99166.16;5046111;28;20036;-67